sensor_id;sensor_type;location;lat;lon;timestamp;P1;durP1;ratioP1;P2;durP2;ratioP2
57217;SDS011;43078;52.972;6.482;2023-05-07T00:02:04;13.40;;;8.02;;
57217;SDS011;43078;52.972;6.482;2023-05-07T00:04:29;13.10;;;7.85;;
57217;SDS011;43078;52.972;6.482;2023-05-07T00:07:16;11.43;;;7.97;;
57217;SDS011;43078;52.972;6.482;2023-05-07T00:09:43;14.02;;;8.35;;
57217;SDS011;43078;52.972;6.482;2023-05-07T00:12:09;13.27;;;8.43;;
57217;SDS011;43078;52.972;6.482;2023-05-07T00:14:34;14.50;;;8.25;;
57217;SDS011;43078;52.972;6.482;2023-05-07T00:17:06;14.07;;;8.52;;
57217;SDS011;43078;52.972;6.482;2023-05-07T00:19:31;14.80;;;8.23;;
57217;SDS011;43078;52.972;6.482;2023-05-07T00:22:15;13.13;;;8.48;;
57217;SDS011;43078;52.972;6.482;2023-05-07T00:24:40;16.25;;;9.05;;
57217;SDS011;43078;52.972;6.482;2023-05-07T00:27:06;14.07;;;8.52;;
57217;SDS011;43078;52.972;6.482;2023-05-07T00:29:34;14.18;;;8.27;;
57217;SDS011;43078;52.972;6.482;2023-05-07T00:32:02;13.73;;;8.48;;
57217;SDS011;43078;52.972;6.482;2023-05-07T00:34:28;19.52;;;9.45;;
57217;SDS011;43078;52.972;6.482;2023-05-07T00:36:54;12.00;;;8.98;;
57217;SDS011;43078;52.972;6.482;2023-05-07T00:39:20;14.10;;;9.40;;
57217;SDS011;43078;52.972;6.482;2023-05-07T00:41:46;14.77;;;9.40;;
57217;SDS011;43078;52.972;6.482;2023-05-07T00:44:12;14.27;;;9.32;;
57217;SDS011;43078;52.972;6.482;2023-05-07T00:46:40;19.98;;;10.70;;
57217;SDS011;43078;52.972;6.482;2023-05-07T00:49:06;13.68;;;10.32;;
57217;SDS011;43078;52.972;6.482;2023-05-07T00:51:38;16.95;;;9.93;;
57217;SDS011;43078;52.972;6.482;2023-05-07T00:54:04;16.88;;;10.73;;
57217;SDS011;43078;52.972;6.482;2023-05-07T00:56:30;15.75;;;10.18;;
57217;SDS011;43078;52.972;6.482;2023-05-07T01:02:05;18.08;;;10.93;;
57217;SDS011;43078;52.972;6.482;2023-05-07T01:04:34;15.95;;;11.25;;
57217;SDS011;43078;52.972;6.482;2023-05-07T01:07:10;17.40;;;10.88;;
57217;SDS011;43078;52.972;6.482;2023-05-07T01:09:36;16.75;;;11.45;;
57217;SDS011;43078;52.972;6.482;2023-05-07T01:12:04;14.60;;;10.52;;
57217;SDS011;43078;52.972;6.482;2023-05-07T01:14:53;16.17;;;11.23;;
57217;SDS011;43078;52.972;6.482;2023-05-07T01:17:39;18.90;;;11.00;;
57217;SDS011;43078;52.972;6.482;2023-05-07T01:20:27;16.42;;;12.23;;
57217;SDS011;43078;52.972;6.482;2023-05-07T01:22:53;17.10;;;11.40;;
57217;SDS011;43078;52.972;6.482;2023-05-07T01:25:21;15.70;;;12.05;;
57217;SDS011;43078;52.972;6.482;2023-05-07T01:27:47;16.50;;;11.70;;
57217;SDS011;43078;52.972;6.482;2023-05-07T01:30:16;16.75;;;13.13;;
57217;SDS011;43078;52.972;6.482;2023-05-07T01:33:00;20.60;;;13.30;;
57217;SDS011;43078;52.972;6.482;2023-05-07T01:36:02;20.75;;;12.80;;
57217;SDS011;43078;52.972;6.482;2023-05-07T01:38:32;19.42;;;12.60;;
57217;SDS011;43078;52.972;6.482;2023-05-07T01:41:02;22.08;;;13.40;;
57217;SDS011;43078;52.972;6.482;2023-05-07T01:43:50;19.83;;;13.93;;
57217;SDS011;43078;52.972;6.482;2023-05-07T01:46:17;17.55;;;12.60;;
57217;SDS011;43078;52.972;6.482;2023-05-07T01:48:44;16.92;;;13.10;;
57217;SDS011;43078;52.972;6.482;2023-05-07T01:51:11;16.13;;;13.07;;
57217;SDS011;43078;52.972;6.482;2023-05-07T01:53:37;20.25;;;13.48;;
57217;SDS011;43078;52.972;6.482;2023-05-07T01:56:03;17.67;;;13.38;;
57217;SDS011;43078;52.972;6.482;2023-05-07T01:58:30;16.42;;;13.68;;
57217;SDS011;43078;52.972;6.482;2023-05-07T02:00:56;20.58;;;13.60;;
57217;SDS011;43078;52.972;6.482;2023-05-07T02:03:21;16.33;;;13.02;;
57217;SDS011;43078;52.972;6.482;2023-05-07T02:05:50;18.20;;;13.43;;
57217;SDS011;43078;52.972;6.482;2023-05-07T02:08:18;19.17;;;14.40;;
57217;SDS011;43078;52.972;6.482;2023-05-07T02:10:56;18.90;;;13.70;;
57217;SDS011;43078;52.972;6.482;2023-05-07T02:13:28;19.63;;;13.93;;
57217;SDS011;43078;52.972;6.482;2023-05-07T02:15:55;19.27;;;14.80;;
57217;SDS011;43078;52.972;6.482;2023-05-07T02:18:21;20.67;;;14.80;;
57217;SDS011;43078;52.972;6.482;2023-05-07T02:20:46;20.10;;;14.38;;
57217;SDS011;43078;52.972;6.482;2023-05-07T02:23:12;22.55;;;15.05;;
57217;SDS011;43078;52.972;6.482;2023-05-07T02:25:38;19.25;;;14.73;;
57217;SDS011;43078;52.972;6.482;2023-05-07T02:28:04;19.20;;;14.93;;
57217;SDS011;43078;52.972;6.482;2023-05-07T02:30:29;19.27;;;14.88;;
57217;SDS011;43078;52.972;6.482;2023-05-07T02:32:55;23.20;;;16.73;;
57217;SDS011;43078;52.972;6.482;2023-05-07T02:35:21;20.30;;;16.20;;
57217;SDS011;43078;52.972;6.482;2023-05-07T02:37:47;19.70;;;16.55;;
57217;SDS011;43078;52.972;6.482;2023-05-07T02:40:12;19.65;;;15.32;;
57217;SDS011;43078;52.972;6.482;2023-05-07T02:42:38;23.90;;;16.40;;
57217;SDS011;43078;52.972;6.482;2023-05-07T02:45:04;22.05;;;16.10;;
57217;SDS011;43078;52.972;6.482;2023-05-07T02:47:45;19.75;;;16.83;;
57217;SDS011;43078;52.972;6.482;2023-05-07T02:50:17;20.73;;;16.35;;
57217;SDS011;43078;52.972;6.482;2023-05-07T02:53:01;23.40;;;16.52;;
57217;SDS011;43078;52.972;6.482;2023-05-07T02:55:27;22.77;;;16.95;;
57217;SDS011;43078;52.972;6.482;2023-05-07T02:57:53;22.38;;;16.50;;
57217;SDS011;43078;52.972;6.482;2023-05-07T03:00:19;22.52;;;16.85;;
57217;SDS011;43078;52.972;6.482;2023-05-07T03:02:45;23.45;;;17.63;;
57217;SDS011;43078;52.972;6.482;2023-05-07T03:05:11;22.20;;;17.70;;
57217;SDS011;43078;52.972;6.482;2023-05-07T03:07:37;21.55;;;17.27;;
57217;SDS011;43078;52.972;6.482;2023-05-07T03:10:03;20.13;;;17.02;;
57217;SDS011;43078;52.972;6.482;2023-05-07T03:12:30;22.52;;;17.67;;
57217;SDS011;43078;52.972;6.482;2023-05-07T03:14:56;23.33;;;17.48;;
57217;SDS011;43078;52.972;6.482;2023-05-07T03:17:24;20.95;;;16.67;;
57217;SDS011;43078;52.972;6.482;2023-05-07T03:19:50;22.42;;;17.25;;
57217;SDS011;43078;52.972;6.482;2023-05-07T03:22:15;25.08;;;18.42;;
57217;SDS011;43078;52.972;6.482;2023-05-07T03:24:44;23.15;;;18.20;;
57217;SDS011;43078;52.972;6.482;2023-05-07T03:27:09;23.25;;;18.55;;
57217;SDS011;43078;52.972;6.482;2023-05-07T03:29:35;22.17;;;18.08;;
57217;SDS011;43078;52.972;6.482;2023-05-07T03:32:01;25.55;;;19.60;;
57217;SDS011;43078;52.972;6.482;2023-05-07T03:34:32;24.88;;;20.27;;
57217;SDS011;43078;52.972;6.482;2023-05-07T03:40:09;22.85;;;19.33;;
57217;SDS011;43078;52.972;6.482;2023-05-07T03:42:38;26.58;;;19.00;;
57217;SDS011;43078;52.972;6.482;2023-05-07T03:45:07;27.80;;;21.17;;
57217;SDS011;43078;52.972;6.482;2023-05-07T03:47:33;26.38;;;20.95;;
57217;SDS011;43078;52.972;6.482;2023-05-07T03:50:00;31.13;;;21.63;;
57217;SDS011;43078;52.972;6.482;2023-05-07T03:52:26;28.58;;;21.10;;
57217;SDS011;43078;52.972;6.482;2023-05-07T03:54:54;27.58;;;21.50;;
57217;SDS011;43078;52.972;6.482;2023-05-07T03:57:20;28.60;;;21.80;;
57217;SDS011;43078;52.972;6.482;2023-05-07T03:59:46;27.20;;;21.58;;
57217;SDS011;43078;52.972;6.482;2023-05-07T04:02:14;28.83;;;21.77;;
57217;SDS011;43078;52.972;6.482;2023-05-07T04:04:42;27.02;;;22.25;;
57217;SDS011;43078;52.972;6.482;2023-05-07T04:07:08;30.15;;;22.40;;
57217;SDS011;43078;52.972;6.482;2023-05-07T04:09:33;30.45;;;22.55;;
57217;SDS011;43078;52.972;6.482;2023-05-07T04:11:59;29.83;;;23.05;;
57217;SDS011;43078;52.972;6.482;2023-05-07T04:14:26;27.90;;;22.38;;
57217;SDS011;43078;52.972;6.482;2023-05-07T04:16:52;30.52;;;22.63;;
57217;SDS011;43078;52.972;6.482;2023-05-07T04:19:18;30.58;;;23.70;;
57217;SDS011;43078;52.972;6.482;2023-05-07T04:21:43;31.55;;;23.75;;
57217;SDS011;43078;52.972;6.482;2023-05-07T04:24:09;30.63;;;22.80;;
57217;SDS011;43078;52.972;6.482;2023-05-07T04:26:35;29.83;;;22.35;;
57217;SDS011;43078;52.972;6.482;2023-05-07T04:29:00;30.15;;;23.23;;
57217;SDS011;43078;52.972;6.482;2023-05-07T04:31:26;27.88;;;22.42;;
57217;SDS011;43078;52.972;6.482;2023-05-07T04:33:52;29.48;;;22.90;;
57217;SDS011;43078;52.972;6.482;2023-05-07T04:36:17;29.42;;;23.02;;
57217;SDS011;43078;52.972;6.482;2023-05-07T04:38:43;33.20;;;23.42;;
57217;SDS011;43078;52.972;6.482;2023-05-07T04:41:09;29.42;;;22.90;;
57217;SDS011;43078;52.972;6.482;2023-05-07T04:43:35;30.45;;;22.90;;
57217;SDS011;43078;52.972;6.482;2023-05-07T04:46:01;30.83;;;24.17;;
57217;SDS011;43078;52.972;6.482;2023-05-07T04:48:26;27.75;;;22.45;;
57217;SDS011;43078;52.972;6.482;2023-05-07T04:50:54;30.20;;;22.10;;
57217;SDS011;43078;52.972;6.482;2023-05-07T04:53:29;29.52;;;22.50;;
57217;SDS011;43078;52.972;6.482;2023-05-07T04:55:55;30.40;;;23.88;;
57217;SDS011;43078;52.972;6.482;2023-05-07T04:58:22;27.55;;;21.98;;
57217;SDS011;43078;52.972;6.482;2023-05-07T05:00:48;29.10;;;21.85;;
57217;SDS011;43078;52.972;6.482;2023-05-07T05:03:13;32.20;;;23.85;;
57217;SDS011;43078;52.972;6.482;2023-05-07T05:05:39;28.17;;;22.20;;
57217;SDS011;43078;52.972;6.482;2023-05-07T05:08:05;29.02;;;22.63;;
57217;SDS011;43078;52.972;6.482;2023-05-07T05:10:33;31.70;;;23.65;;
57217;SDS011;43078;52.972;6.482;2023-05-07T05:13:01;30.13;;;23.20;;
57217;SDS011;43078;52.972;6.482;2023-05-07T05:15:27;29.40;;;21.80;;
57217;SDS011;43078;52.972;6.482;2023-05-07T05:17:55;27.48;;;21.40;;
57217;SDS011;43078;52.972;6.482;2023-05-07T05:20:21;28.60;;;22.48;;
57217;SDS011;43078;52.972;6.482;2023-05-07T05:22:47;29.95;;;22.30;;
57217;SDS011;43078;52.972;6.482;2023-05-07T05:25:12;29.77;;;21.70;;
57217;SDS011;43078;52.972;6.482;2023-05-07T05:27:39;28.70;;;22.08;;
57217;SDS011;43078;52.972;6.482;2023-05-07T05:30:05;27.95;;;22.35;;
57217;SDS011;43078;52.972;6.482;2023-05-07T05:32:31;27.67;;;22.27;;
57217;SDS011;43078;52.972;6.482;2023-05-07T05:34:57;27.25;;;21.58;;
57217;SDS011;43078;52.972;6.482;2023-05-07T05:37:23;26.95;;;20.77;;
57217;SDS011;43078;52.972;6.482;2023-05-07T05:39:48;24.58;;;21.05;;
57217;SDS011;43078;52.972;6.482;2023-05-07T05:42:14;24.98;;;20.65;;
57217;SDS011;43078;52.972;6.482;2023-05-07T05:44:39;25.63;;;20.98;;
57217;SDS011;43078;52.972;6.482;2023-05-07T05:47:05;27.88;;;20.92;;
57217;SDS011;43078;52.972;6.482;2023-05-07T05:49:31;27.55;;;21.27;;
57217;SDS011;43078;52.972;6.482;2023-05-07T05:51:56;28.15;;;22.13;;
57217;SDS011;43078;52.972;6.482;2023-05-07T05:54:22;25.65;;;20.30;;
57217;SDS011;43078;52.972;6.482;2023-05-07T05:56:47;25.58;;;20.75;;
57217;SDS011;43078;52.972;6.482;2023-05-07T05:59:14;25.30;;;20.35;;
57217;SDS011;43078;52.972;6.482;2023-05-07T06:01:39;23.20;;;19.65;;
57217;SDS011;43078;52.972;6.482;2023-05-07T06:04:05;24.80;;;20.60;;
57217;SDS011;43078;52.972;6.482;2023-05-07T06:06:31;25.50;;;20.08;;
57217;SDS011;43078;52.972;6.482;2023-05-07T06:08:57;27.02;;;19.80;;
57217;SDS011;43078;52.972;6.482;2023-05-07T06:11:23;27.27;;;21.27;;
57217;SDS011;43078;52.972;6.482;2023-05-07T06:13:48;25.17;;;20.15;;
57217;SDS011;43078;52.972;6.482;2023-05-07T06:16:14;25.17;;;20.42;;
57217;SDS011;43078;52.972;6.482;2023-05-07T06:18:42;22.83;;;18.75;;
57217;SDS011;43078;52.972;6.482;2023-05-07T06:21:07;21.88;;;18.35;;
57217;SDS011;43078;52.972;6.482;2023-05-07T06:23:34;26.55;;;21.02;;
57217;SDS011;43078;52.972;6.482;2023-05-07T06:26:00;26.42;;;21.35;;
57217;SDS011;43078;52.972;6.482;2023-05-07T06:28:25;25.42;;;20.05;;
57217;SDS011;43078;52.972;6.482;2023-05-07T06:30:52;26.92;;;20.75;;
57217;SDS011;43078;52.972;6.482;2023-05-07T06:33:18;25.42;;;20.17;;
57217;SDS011;43078;52.972;6.482;2023-05-07T06:35:44;25.50;;;20.10;;
57217;SDS011;43078;52.972;6.482;2023-05-07T06:38:10;24.80;;;19.65;;
57217;SDS011;43078;52.972;6.482;2023-05-07T06:40:37;26.20;;;20.85;;
57217;SDS011;43078;52.972;6.482;2023-05-07T06:43:02;25.33;;;19.77;;
57217;SDS011;43078;52.972;6.482;2023-05-07T06:45:28;24.02;;;19.70;;
57217;SDS011;43078;52.972;6.482;2023-05-07T06:47:54;23.63;;;19.83;;
57217;SDS011;43078;52.972;6.482;2023-05-07T06:50:19;26.83;;;21.30;;
57217;SDS011;43078;52.972;6.482;2023-05-07T06:52:45;23.88;;;20.02;;
57217;SDS011;43078;52.972;6.482;2023-05-07T06:55:11;26.88;;;20.25;;
57217;SDS011;43078;52.972;6.482;2023-05-07T06:57:39;25.40;;;19.65;;
57217;SDS011;43078;52.972;6.482;2023-05-07T07:00:05;25.98;;;20.77;;
57217;SDS011;43078;52.972;6.482;2023-05-07T07:02:33;25.73;;;20.88;;
57217;SDS011;43078;52.972;6.482;2023-05-07T07:04:59;24.35;;;20.80;;
57217;SDS011;43078;52.972;6.482;2023-05-07T07:07:25;26.00;;;21.25;;
57217;SDS011;43078;52.972;6.482;2023-05-07T07:09:50;25.85;;;20.33;;
57217;SDS011;43078;52.972;6.482;2023-05-07T07:12:16;25.50;;;21.10;;
57217;SDS011;43078;52.972;6.482;2023-05-07T07:14:42;27.98;;;21.10;;
57217;SDS011;43078;52.972;6.482;2023-05-07T07:17:07;25.67;;;21.02;;
57217;SDS011;43078;52.972;6.482;2023-05-07T07:19:33;24.50;;;19.70;;
57217;SDS011;43078;52.972;6.482;2023-05-07T07:21:58;24.90;;;21.48;;
57217;SDS011;43078;52.972;6.482;2023-05-07T07:24:24;25.73;;;20.95;;
57217;SDS011;43078;52.972;6.482;2023-05-07T07:26:50;24.00;;;20.38;;
57217;SDS011;43078;52.972;6.482;2023-05-07T07:29:15;27.33;;;20.85;;
57217;SDS011;43078;52.972;6.482;2023-05-07T07:31:41;26.05;;;20.70;;
57217;SDS011;43078;52.972;6.482;2023-05-07T07:34:07;27.83;;;22.27;;
57217;SDS011;43078;52.972;6.482;2023-05-07T07:36:32;26.17;;;21.15;;
57217;SDS011;43078;52.972;6.482;2023-05-07T07:38:58;26.73;;;21.33;;
57217;SDS011;43078;52.972;6.482;2023-05-07T07:41:23;26.33;;;20.75;;
57217;SDS011;43078;52.972;6.482;2023-05-07T07:43:49;25.45;;;21.17;;
57217;SDS011;43078;52.972;6.482;2023-05-07T07:46:17;26.42;;;20.65;;
57217;SDS011;43078;52.972;6.482;2023-05-07T07:48:43;26.23;;;20.20;;
57217;SDS011;43078;52.972;6.482;2023-05-07T07:51:08;25.92;;;21.17;;
57217;SDS011;43078;52.972;6.482;2023-05-07T07:53:34;25.13;;;20.80;;
57217;SDS011;43078;52.972;6.482;2023-05-07T07:56:23;27.38;;;21.70;;
57217;SDS011;43078;52.972;6.482;2023-05-07T07:58:51;26.52;;;21.20;;
57217;SDS011;43078;52.972;6.482;2023-05-07T08:01:38;30.20;;;23.00;;
57217;SDS011;43078;52.972;6.482;2023-05-07T08:04:27;28.20;;;23.25;;
57217;SDS011;43078;52.972;6.482;2023-05-07T08:07:11;29.15;;;23.08;;
57217;SDS011;43078;52.972;6.482;2023-05-07T08:09:40;29.08;;;24.00;;
57217;SDS011;43078;52.972;6.482;2023-05-07T08:12:12;30.60;;;24.10;;
57217;SDS011;43078;52.972;6.482;2023-05-07T08:17:35;30.35;;;24.08;;
57217;SDS011;43078;52.972;6.482;2023-05-07T08:20:22;31.48;;;23.15;;
57217;SDS011;43078;52.972;6.482;2023-05-07T08:25:33;29.38;;;24.70;;
57217;SDS011;43078;52.972;6.482;2023-05-07T08:28:03;30.58;;;24.63;;
57217;SDS011;43078;52.972;6.482;2023-05-07T08:30:28;29.50;;;23.23;;
57217;SDS011;43078;52.972;6.482;2023-05-07T08:32:57;29.23;;;24.38;;
57217;SDS011;43078;52.972;6.482;2023-05-07T08:35:23;27.45;;;23.33;;
57217;SDS011;43078;52.972;6.482;2023-05-07T08:40:38;32.15;;;23.92;;
57217;SDS011;43078;52.972;6.482;2023-05-07T08:43:08;29.10;;;23.27;;
57217;SDS011;43078;52.972;6.482;2023-05-07T08:45:40;30.98;;;25.13;;
57217;SDS011;43078;52.972;6.482;2023-05-07T08:48:09;31.58;;;24.15;;
57217;SDS011;43078;52.972;6.482;2023-05-07T08:50:40;31.27;;;24.35;;
57217;SDS011;43078;52.972;6.482;2023-05-07T08:53:53;28.00;;;23.52;;
57217;SDS011;43078;52.972;6.482;2023-05-07T08:57:10;31.00;;;24.67;;
57217;SDS011;43078;52.972;6.482;2023-05-07T09:00:36;28.02;;;22.70;;
57217;SDS011;43078;52.972;6.482;2023-05-07T09:03:22;28.08;;;23.60;;
57217;SDS011;43078;52.972;6.482;2023-05-07T09:09:32;28.50;;;23.45;;
57217;SDS011;43078;52.972;6.482;2023-05-07T09:11:58;30.25;;;24.67;;
57217;SDS011;43078;52.972;6.482;2023-05-07T09:14:24;30.70;;;24.60;;
57217;SDS011;43078;52.972;6.482;2023-05-07T09:16:52;32.58;;;25.98;;
57217;SDS011;43078;52.972;6.482;2023-05-07T09:19:22;33.28;;;25.48;;
57217;SDS011;43078;52.972;6.482;2023-05-07T09:21:48;29.58;;;24.00;;
57217;SDS011;43078;52.972;6.482;2023-05-07T09:24:17;31.52;;;25.35;;
57217;SDS011;43078;52.972;6.482;2023-05-07T09:26:42;32.40;;;25.08;;
57217;SDS011;43078;52.972;6.482;2023-05-07T09:29:09;27.15;;;23.42;;
57217;SDS011;43078;52.972;6.482;2023-05-07T09:31:38;30.33;;;23.25;;
57217;SDS011;43078;52.972;6.482;2023-05-07T09:34:04;30.38;;;24.08;;
57217;SDS011;43078;52.972;6.482;2023-05-07T09:36:31;27.15;;;23.13;;
57217;SDS011;43078;52.972;6.482;2023-05-07T09:38:59;26.40;;;22.25;;
57217;SDS011;43078;52.972;6.482;2023-05-07T09:41:25;27.83;;;23.08;;
57217;SDS011;43078;52.972;6.482;2023-05-07T09:43:54;27.98;;;23.52;;
57217;SDS011;43078;52.972;6.482;2023-05-07T09:46:21;28.25;;;23.05;;
57217;SDS011;43078;52.972;6.482;2023-05-07T09:48:59;25.50;;;22.70;;
57217;SDS011;43078;52.972;6.482;2023-05-07T09:51:34;25.83;;;22.50;;
57217;SDS011;43078;52.972;6.482;2023-05-07T09:54:06;27.45;;;23.20;;
57217;SDS011;43078;52.972;6.482;2023-05-07T09:56:32;27.17;;;22.90;;
57217;SDS011;43078;52.972;6.482;2023-05-07T09:58:59;27.65;;;23.20;;
57217;SDS011;43078;52.972;6.482;2023-05-07T10:01:25;26.58;;;22.40;;
57217;SDS011;43078;52.972;6.482;2023-05-07T10:03:52;27.38;;;22.50;;
57217;SDS011;43078;52.972;6.482;2023-05-07T10:06:21;25.88;;;22.45;;
57217;SDS011;43078;52.972;6.482;2023-05-07T10:08:49;25.60;;;21.55;;
57217;SDS011;43078;52.972;6.482;2023-05-07T10:11:16;27.02;;;22.90;;
57217;SDS011;43078;52.972;6.482;2023-05-07T10:13:42;26.27;;;22.88;;
57217;SDS011;43078;52.972;6.482;2023-05-07T10:16:08;25.30;;;21.75;;
57217;SDS011;43078;52.972;6.482;2023-05-07T10:18:34;27.08;;;22.48;;
57217;SDS011;43078;52.972;6.482;2023-05-07T10:21:21;25.85;;;21.35;;
57217;SDS011;43078;52.972;6.482;2023-05-07T10:23:50;24.88;;;22.17;;
57217;SDS011;43078;52.972;6.482;2023-05-07T10:26:22;25.30;;;21.23;;
57217;SDS011;43078;52.972;6.482;2023-05-07T10:28:50;23.88;;;21.23;;
57217;SDS011;43078;52.972;6.482;2023-05-07T10:34:36;23.67;;;19.98;;
57217;SDS011;43078;52.972;6.482;2023-05-07T10:37:05;23.13;;;20.30;;
57217;SDS011;43078;52.972;6.482;2023-05-07T10:39:32;23.00;;;19.45;;
57217;SDS011;43078;52.972;6.482;2023-05-07T10:42:07;22.52;;;19.73;;
57217;SDS011;43078;52.972;6.482;2023-05-07T10:44:33;23.08;;;19.92;;
57217;SDS011;43078;52.972;6.482;2023-05-07T10:47:10;23.30;;;20.45;;
57217;SDS011;43078;52.972;6.482;2023-05-07T10:50:21;22.10;;;19.55;;
57217;SDS011;43078;52.972;6.482;2023-05-07T10:52:31;25.48;;;19.67;;
57217;SDS011;43078;52.972;6.482;2023-05-07T10:57:42;22.23;;;18.70;;
57217;SDS011;43078;52.972;6.482;2023-05-07T11:05:29;20.17;;;18.05;;
57217;SDS011;43078;52.972;6.482;2023-05-07T11:07:57;21.00;;;18.67;;
57217;SDS011;43078;52.972;6.482;2023-05-07T11:13:12;21.48;;;17.55;;
57217;SDS011;43078;52.972;6.482;2023-05-07T11:15:43;22.13;;;18.40;;
57217;SDS011;43078;52.972;6.482;2023-05-07T11:18:11;20.88;;;17.88;;
57217;SDS011;43078;52.972;6.482;2023-05-07T11:20:44;20.23;;;17.95;;
57217;SDS011;43078;52.972;6.482;2023-05-07T11:24:14;21.33;;;17.98;;
57217;SDS011;43078;52.972;6.482;2023-05-07T11:26:12;20.45;;;17.90;;
57217;SDS011;43078;52.972;6.482;2023-05-07T11:28:42;20.98;;;17.30;;
57217;SDS011;43078;52.972;6.482;2023-05-07T11:31:34;19.27;;;17.27;;
57217;SDS011;43078;52.972;6.482;2023-05-07T11:34:23;21.15;;;17.70;;
57217;SDS011;43078;52.972;6.482;2023-05-07T11:36:50;20.27;;;17.02;;
57217;SDS011;43078;52.972;6.482;2023-05-07T11:39:26;18.70;;;16.70;;
57217;SDS011;43078;52.972;6.482;2023-05-07T11:41:57;20.02;;;16.52;;
57217;SDS011;43078;52.972;6.482;2023-05-07T11:44:45;18.55;;;16.65;;
57217;SDS011;43078;52.972;6.482;2023-05-07T11:47:19;18.95;;;17.00;;
57217;SDS011;43078;52.972;6.482;2023-05-07T11:49:48;18.50;;;16.52;;
57217;SDS011;43078;52.972;6.482;2023-05-07T11:52:16;18.88;;;16.85;;
57217;SDS011;43078;52.972;6.482;2023-05-07T11:54:48;18.33;;;16.23;;
57217;SDS011;43078;52.972;6.482;2023-05-07T11:57:19;19.90;;;16.75;;
57217;SDS011;43078;52.972;6.482;2023-05-07T11:59:45;17.52;;;15.68;;
57217;SDS011;43078;52.972;6.482;2023-05-07T12:02:13;18.60;;;16.70;;
57217;SDS011;43078;52.972;6.482;2023-05-07T12:04:39;19.40;;;16.90;;
57217;SDS011;43078;52.972;6.482;2023-05-07T12:07:05;19.85;;;16.42;;
57217;SDS011;43078;52.972;6.482;2023-05-07T12:09:32;17.98;;;16.05;;
57217;SDS011;43078;52.972;6.482;2023-05-07T12:12:02;18.42;;;16.40;;
57217;SDS011;43078;52.972;6.482;2023-05-07T12:14:29;19.88;;;16.42;;
57217;SDS011;43078;52.972;6.482;2023-05-07T12:16:55;18.77;;;16.25;;
57217;SDS011;43078;52.972;6.482;2023-05-07T12:19:21;20.77;;;17.20;;
57217;SDS011;43078;52.972;6.482;2023-05-07T12:21:47;19.45;;;17.38;;
57217;SDS011;43078;52.972;6.482;2023-05-07T12:24:14;18.45;;;16.35;;
57217;SDS011;43078;52.972;6.482;2023-05-07T12:26:40;19.23;;;17.17;;
57217;SDS011;43078;52.972;6.482;2023-05-07T12:29:06;20.13;;;17.63;;
57217;SDS011;43078;52.972;6.482;2023-05-07T12:31:32;18.70;;;16.75;;
57217;SDS011;43078;52.972;6.482;2023-05-07T12:33:57;18.67;;;16.27;;
57217;SDS011;43078;52.972;6.482;2023-05-07T12:36:23;19.10;;;16.45;;
57217;SDS011;43078;52.972;6.482;2023-05-07T12:38:49;19.05;;;16.88;;
57217;SDS011;43078;52.972;6.482;2023-05-07T12:41:15;18.30;;;16.33;;
57217;SDS011;43078;52.972;6.482;2023-05-07T12:43:43;18.80;;;16.60;;
57217;SDS011;43078;52.972;6.482;2023-05-07T12:46:10;19.30;;;17.30;;
57217;SDS011;43078;52.972;6.482;2023-05-07T12:48:38;18.38;;;16.45;;
57217;SDS011;43078;52.972;6.482;2023-05-07T12:51:08;17.65;;;15.77;;
57217;SDS011;43078;52.972;6.482;2023-05-07T12:53:39;18.55;;;16.65;;
57217;SDS011;43078;52.972;6.482;2023-05-07T12:56:07;18.58;;;15.93;;
57217;SDS011;43078;52.972;6.482;2023-05-07T12:58:33;18.92;;;16.65;;
57217;SDS011;43078;52.972;6.482;2023-05-07T13:01:01;17.55;;;15.65;;
57217;SDS011;43078;52.972;6.482;2023-05-07T13:06:01;17.00;;;15.13;;
57217;SDS011;43078;52.972;6.482;2023-05-07T13:08:29;18.33;;;15.75;;
57217;SDS011;43078;52.972;6.482;2023-05-07T13:10:55;21.58;;;16.20;;
57217;SDS011;43078;52.972;6.482;2023-05-07T13:13:21;19.33;;;16.27;;
57217;SDS011;43078;52.972;6.482;2023-05-07T13:15:47;17.80;;;15.90;;
57217;SDS011;43078;52.972;6.482;2023-05-07T13:18:13;17.55;;;15.65;;
57217;SDS011;43078;52.972;6.482;2023-05-07T13:20:39;18.23;;;16.23;;
57217;SDS011;43078;52.972;6.482;2023-05-07T13:23:05;19.63;;;16.40;;
57217;SDS011;43078;52.972;6.482;2023-05-07T13:25:31;17.17;;;15.38;;
57217;SDS011;43078;52.972;6.482;2023-05-07T13:27:57;18.85;;;16.35;;
57217;SDS011;43078;52.972;6.482;2023-05-07T13:30:22;17.98;;;16.08;;
57217;SDS011;43078;52.972;6.482;2023-05-07T13:32:48;17.63;;;15.82;;
57217;SDS011;43078;52.972;6.482;2023-05-07T13:35:15;17.30;;;15.18;;
57217;SDS011;43078;52.972;6.482;2023-05-07T13:37:41;18.50;;;16.15;;
57217;SDS011;43078;52.972;6.482;2023-05-07T13:40:07;16.67;;;14.93;;
57217;SDS011;43078;52.972;6.482;2023-05-07T13:42:33;17.83;;;15.57;;
57217;SDS011;43078;52.972;6.482;2023-05-07T13:44:59;17.58;;;15.77;;
57217;SDS011;43078;52.972;6.482;2023-05-07T13:47:25;18.27;;;15.10;;
57217;SDS011;43078;52.972;6.482;2023-05-07T13:49:50;17.67;;;15.65;;
57217;SDS011;43078;52.972;6.482;2023-05-07T13:52:16;18.80;;;15.35;;
57217;SDS011;43078;52.972;6.482;2023-05-07T13:54:42;17.27;;;15.48;;
57217;SDS011;43078;52.972;6.482;2023-05-07T13:57:07;17.60;;;15.20;;
57217;SDS011;43078;52.972;6.482;2023-05-07T13:59:33;15.63;;;13.82;;
57217;SDS011;43078;52.972;6.482;2023-05-07T14:01:59;16.30;;;14.25;;
57217;SDS011;43078;52.972;6.482;2023-05-07T14:04:24;16.98;;;15.02;;
57217;SDS011;43078;52.972;6.482;2023-05-07T14:06:50;15.88;;;14.27;;
57217;SDS011;43078;52.972;6.482;2023-05-07T14:09:16;15.70;;;12.63;;
57217;SDS011;43078;52.972;6.482;2023-05-07T14:11:42;15.32;;;13.18;;
57217;SDS011;43078;52.972;6.482;2023-05-07T14:14:07;17.15;;;14.10;;
57217;SDS011;43078;52.972;6.482;2023-05-07T14:16:35;16.88;;;13.82;;
57217;SDS011;43078;52.972;6.482;2023-05-07T14:19:02;14.63;;;13.13;;
57217;SDS011;43078;52.972;6.482;2023-05-07T14:21:27;15.25;;;13.65;;
57217;SDS011;43078;52.972;6.482;2023-05-07T14:23:53;14.63;;;13.13;;
57217;SDS011;43078;52.972;6.482;2023-05-07T14:26:19;15.25;;;13.65;;
57217;SDS011;43078;52.972;6.482;2023-05-07T14:28:45;15.88;;;13.60;;
57217;SDS011;43078;52.972;6.482;2023-05-07T14:31:11;15.05;;;13.45;;
57217;SDS011;43078;52.972;6.482;2023-05-07T14:33:37;15.80;;;14.10;;
57217;SDS011;43078;52.972;6.482;2023-05-07T14:36:03;14.55;;;11.93;;
57217;SDS011;43078;52.972;6.482;2023-05-07T14:38:29;13.82;;;11.63;;
57217;SDS011;43078;52.972;6.482;2023-05-07T14:40:57;15.05;;;13.45;;
57217;SDS011;43078;52.972;6.482;2023-05-07T14:43:23;14.27;;;12.73;;
57217;SDS011;43078;52.972;6.482;2023-05-07T14:45:49;16.33;;;13.77;;
57217;SDS011;43078;52.972;6.482;2023-05-07T14:48:15;13.73;;;12.32;;
57217;SDS011;43078;52.972;6.482;2023-05-07T14:50:41;12.07;;;10.38;;
57217;SDS011;43078;52.972;6.482;2023-05-07T14:53:07;14.52;;;12.98;;
57217;SDS011;43078;52.972;6.482;2023-05-07T14:55:33;16.00;;;14.30;;
57217;SDS011;43078;52.972;6.482;2023-05-07T14:57:59;14.32;;;11.88;;
57217;SDS011;43078;52.972;6.482;2023-05-07T15:00:25;13.15;;;11.75;;
57217;SDS011;43078;52.972;6.482;2023-05-07T15:02:51;13.70;;;12.27;;
57217;SDS011;43078;52.972;6.482;2023-05-07T15:05:17;14.65;;;13.25;;
57217;SDS011;43078;52.972;6.482;2023-05-07T15:07:44;14.80;;;13.35;;